sensor_id;sensor_type;location;lat;lon;timestamp;temperature;humidity
14008;DHT22;61651;45.508;12.232;2022-07-29T00:01:52;28.40;99.90
14008;DHT22;61651;45.508;12.232;2022-07-29T00:04:54;28.20;99.90
14008;DHT22;61651;45.508;12.232;2022-07-29T00:07:56;28.20;99.90
14008;DHT22;61651;45.508;12.232;2022-07-29T00:10:58;28.20;99.90
14008;DHT22;61651;45.508;12.232;2022-07-29T00:14:01;28.20;99.90
14008;DHT22;61651;45.508;12.232;2022-07-29T00:17:03;28.10;99.90
14008;DHT22;61651;45.508;12.232;2022-07-29T00:20:07;28.00;99.90
14008;DHT22;61651;45.508;12.232;2022-07-29T00:23:09;27.80;99.90
14008;DHT22;61651;45.508;12.232;2022-07-29T00:26:11;27.80;99.90
14008;DHT22;61651;45.508;12.232;2022-07-29T00:29:14;27.90;99.90
14008;DHT22;61651;45.508;12.232;2022-07-29T00:32:16;28.00;99.90
14008;DHT22;61651;45.508;12.232;2022-07-29T00:35:18;28.20;99.90
14008;DHT22;61651;45.508;12.232;2022-07-29T00:38:37;28.20;99.90
14008;DHT22;61651;45.508;12.232;2022-07-29T00:41:42;28.10;99.90
14008;DHT22;61651;45.508;12.232;2022-07-29T00:44:45;28.10;99.90
14008;DHT22;61651;45.508;12.232;2022-07-29T00:47:47;28.00;99.90
14008;DHT22;61651;45.508;12.232;2022-07-29T00:50:50;28.00;99.90
14008;DHT22;61651;45.508;12.232;2022-07-29T00:53:52;27.80;99.90
14008;DHT22;61651;45.508;12.232;2022-07-29T00:56:54;27.70;99.90
14008;DHT22;61651;45.508;12.232;2022-07-29T00:59:58;27.70;99.90
14008;DHT22;61651;45.508;12.232;2022-07-29T01:03:00;27.80;99.90
14008;DHT22;61651;45.508;12.232;2022-07-29T01:06:02;27.70;99.90
14008;DHT22;61651;45.508;12.232;2022-07-29T01:09:05;27.70;99.90
14008;DHT22;61651;45.508;12.232;2022-07-29T01:12:08;27.70;99.90
14008;DHT22;61651;45.508;12.232;2022-07-29T01:15:12;27.90;99.90
14008;DHT22;61651;45.508;12.232;2022-07-29T01:18:18;28.00;99.90
14008;DHT22;61651;45.508;12.232;2022-07-29T01:21:37;28.10;99.90
14008;DHT22;61651;45.508;12.232;2022-07-29T01:28:39;28.20;99.90
14008;DHT22;61651;45.508;12.232;2022-07-29T01:31:48;28.20;99.90
14008;DHT22;61651;45.508;12.232;2022-07-29T01:34:55;28.30;99.90
14008;DHT22;61651;45.508;12.232;2022-07-29T01:38:03;28.40;99.90
14008;DHT22;61651;45.508;12.232;2022-07-29T01:41:09;28.50;99.90
14008;DHT22;61651;45.508;12.232;2022-07-29T01:44:18;28.50;99.90
14008;DHT22;61651;45.508;12.232;2022-07-29T01:47:25;28.60;99.90
14008;DHT22;61651;45.508;12.232;2022-07-29T01:50:32;28.60;99.90
14008;DHT22;61651;45.508;12.232;2022-07-29T01:53:44;28.70;99.90
14008;DHT22;61651;45.508;12.232;2022-07-29T01:56:51;28.60;99.90
14008;DHT22;61651;45.508;12.232;2022-07-29T01:59:56;28.60;99.90
14008;DHT22;61651;45.508;12.232;2022-07-29T02:03:02;28.50;99.90
14008;DHT22;61651;45.508;12.232;2022-07-29T02:06:07;28.50;99.90
14008;DHT22;61651;45.508;12.232;2022-07-29T02:09:12;28.50;99.90
14008;DHT22;61651;45.508;12.232;2022-07-29T02:12:18;28.40;99.90
14008;DHT22;61651;45.508;12.232;2022-07-29T02:15:22;28.50;99.90
14008;DHT22;61651;45.508;12.232;2022-07-29T02:18:25;28.50;99.90
14008;DHT22;61651;45.508;12.232;2022-07-29T02:21:30;28.50;99.90
14008;DHT22;61651;45.508;12.232;2022-07-29T02:24:35;28.50;99.90
14008;DHT22;61651;45.508;12.232;2022-07-29T02:27:40;28.50;99.90
14008;DHT22;61651;45.508;12.232;2022-07-29T02:30:45;28.50;99.90
14008;DHT22;61651;45.508;12.232;2022-07-29T02:33:49;28.50;99.90
14008;DHT22;61651;45.508;12.232;2022-07-29T02:36:52;28.40;99.90
14008;DHT22;61651;45.508;12.232;2022-07-29T02:39:57;28.40;99.90
14008;DHT22;61651;45.508;12.232;2022-07-29T02:43:01;28.40;99.90
14008;DHT22;61651;45.508;12.232;2022-07-29T02:46:08;28.40;99.90
14008;DHT22;61651;45.508;12.232;2022-07-29T02:49:16;28.30;99.90
14008;DHT22;61651;45.508;12.232;2022-07-29T02:52:24;28.30;99.90
14008;DHT22;61651;45.508;12.232;2022-07-29T02:55:32;28.30;99.90
14008;DHT22;61651;45.508;12.232;2022-07-29T02:58:38;28.20;99.90
14008;DHT22;61651;45.508;12.232;2022-07-29T03:01:44;28.20;99.90
14008;DHT22;61651;45.508;12.232;2022-07-29T03:04:47;28.20;99.90
14008;DHT22;61651;45.508;12.232;2022-07-29T03:07:54;28.20;99.90
14008;DHT22;61651;45.508;12.232;2022-07-29T03:10:57;28.10;99.90
14008;DHT22;61651;45.508;12.232;2022-07-29T03:13:59;28.10;99.90
14008;DHT22;61651;45.508;12.232;2022-07-29T03:17:03;28.10;99.90
14008;DHT22;61651;45.508;12.232;2022-07-29T03:20:07;28.10;99.90
14008;DHT22;61651;45.508;12.232;2022-07-29T03:23:09;27.90;99.90
14008;DHT22;61651;45.508;12.232;2022-07-29T03:26:11;27.80;99.90
14008;DHT22;61651;45.508;12.232;2022-07-29T03:29:13;27.80;99.90
14008;DHT22;61651;45.508;12.232;2022-07-29T03:32:16;27.70;99.90
14008;DHT22;61651;45.508;12.232;2022-07-29T03:35:19;27.70;99.90
14008;DHT22;61651;45.508;12.232;2022-07-29T03:38:25;27.70;99.90
14008;DHT22;61651;45.508;12.232;2022-07-29T03:41:29;27.60;99.90
14008;DHT22;61651;45.508;12.232;2022-07-29T03:44:32;27.60;99.90
14008;DHT22;61651;45.508;12.232;2022-07-29T03:47:39;27.50;99.90
14008;DHT22;61651;45.508;12.232;2022-07-29T03:50:42;27.50;99.90
14008;DHT22;61651;45.508;12.232;2022-07-29T03:53:45;27.50;99.90
14008;DHT22;61651;45.508;12.232;2022-07-29T03:56:48;27.50;99.90
14008;DHT22;61651;45.508;12.232;2022-07-29T03:59:53;27.30;99.90
14008;DHT22;61651;45.508;12.232;2022-07-29T04:02:56;27.30;99.90
14008;DHT22;61651;45.508;12.232;2022-07-29T04:06:02;27.30;99.90
14008;DHT22;61651;45.508;12.232;2022-07-29T04:09:06;27.30;99.90
14008;DHT22;61651;45.508;12.232;2022-07-29T04:12:09;27.30;99.90
14008;DHT22;61651;45.508;12.232;2022-07-29T04:15:11;27.30;99.90
14008;DHT22;61651;45.508;12.232;2022-07-29T04:18:15;27.30;99.90
14008;DHT22;61651;45.508;12.232;2022-07-29T04:21:17;27.30;99.90
14008;DHT22;61651;45.508;12.232;2022-07-29T04:24:19;27.30;99.90
14008;DHT22;61651;45.508;12.232;2022-07-29T04:27:21;27.30;99.90
14008;DHT22;61651;45.508;12.232;2022-07-29T04:30:23;27.30;99.90
14008;DHT22;61651;45.508;12.232;2022-07-29T04:33:26;27.30;99.90
14008;DHT22;61651;45.508;12.232;2022-07-29T04:36:28;27.30;99.90
14008;DHT22;61651;45.508;12.232;2022-07-29T04:39:30;27.20;99.90
14008;DHT22;61651;45.508;12.232;2022-07-29T04:42:32;27.20;99.90
14008;DHT22;61651;45.508;12.232;2022-07-29T04:45:34;27.20;99.90
14008;DHT22;61651;45.508;12.232;2022-07-29T04:48:38;27.10;99.90
14008;DHT22;61651;45.508;12.232;2022-07-29T04:51:40;27.00;99.90
14008;DHT22;61651;45.508;12.232;2022-07-29T04:54:42;27.10;99.90
14008;DHT22;61651;45.508;12.232;2022-07-29T04:57:44;27.10;99.90
14008;DHT22;61651;45.508;12.232;2022-07-29T05:00:46;27.10;99.90
14008;DHT22;61651;45.508;12.232;2022-07-29T05:03:49;27.10;99.90
14008;DHT22;61651;45.508;12.232;2022-07-29T05:06:51;27.10;99.90
14008;DHT22;61651;45.508;12.232;2022-07-29T05:09:53;26.90;99.90
14008;DHT22;61651;45.508;12.232;2022-07-29T05:12:57;26.90;99.90
14008;DHT22;61651;45.508;12.232;2022-07-29T05:15:59;26.60;99.90
14008;DHT22;61651;45.508;12.232;2022-07-29T05:19:03;26.80;99.90
14008;DHT22;61651;45.508;12.232;2022-07-29T05:22:09;26.90;99.90
14008;DHT22;61651;45.508;12.232;2022-07-29T05:25:19;27.00;99.90
14008;DHT22;61651;45.508;12.232;2022-07-29T05:28:21;27.00;99.90
14008;DHT22;61651;45.508;12.232;2022-07-29T05:31:23;27.00;99.90
14008;DHT22;61651;45.508;12.232;2022-07-29T05:34:26;26.90;99.90
14008;DHT22;61651;45.508;12.232;2022-07-29T05:37:28;26.90;99.90
14008;DHT22;61651;45.508;12.232;2022-07-29T05:40:30;26.80;99.90
14008;DHT22;61651;45.508;12.232;2022-07-29T05:43:33;26.80;99.90
14008;DHT22;61651;45.508;12.232;2022-07-29T05:46:35;26.90;99.90
14008;DHT22;61651;45.508;12.232;2022-07-29T05:49:38;27.00;99.90
14008;DHT22;61651;45.508;12.232;2022-07-29T05:52:40;27.20;99.90
14008;DHT22;61651;45.508;12.232;2022-07-29T05:55:49;27.40;99.90
14008;DHT22;61651;45.508;12.232;2022-07-29T05:58:52;27.40;99.90
14008;DHT22;61651;45.508;12.232;2022-07-29T06:01:54;27.50;99.90
14008;DHT22;61651;45.508;12.232;2022-07-29T06:04:58;27.50;99.90
14008;DHT22;61651;45.508;12.232;2022-07-29T06:08:00;27.40;99.90
14008;DHT22;61651;45.508;12.232;2022-07-29T06:11:03;27.60;99.90
14008;DHT22;61651;45.508;12.232;2022-07-29T06:14:05;27.70;99.90
14008;DHT22;61651;45.508;12.232;2022-07-29T06:17:08;27.80;99.90
14008;DHT22;61651;45.508;12.232;2022-07-29T06:20:13;27.90;99.90
14008;DHT22;61651;45.508;12.232;2022-07-29T06:23:15;28.00;99.90
14008;DHT22;61651;45.508;12.232;2022-07-29T06:26:17;28.10;99.90
14008;DHT22;61651;45.508;12.232;2022-07-29T06:29:19;28.10;99.90
14008;DHT22;61651;45.508;12.232;2022-07-29T06:32:21;28.20;99.90
14008;DHT22;61651;45.508;12.232;2022-07-29T06:35:24;28.20;99.90
14008;DHT22;61651;45.508;12.232;2022-07-29T06:38:26;28.20;99.90
14008;DHT22;61651;45.508;12.232;2022-07-29T06:41:28;28.30;99.90
14008;DHT22;61651;45.508;12.232;2022-07-29T06:44:31;28.00;99.90
14008;DHT22;61651;45.508;12.232;2022-07-29T06:47:34;28.10;99.90
14008;DHT22;61651;45.508;12.232;2022-07-29T06:50:37;28.00;99.90
14008;DHT22;61651;45.508;12.232;2022-07-29T06:53:40;28.10;99.90
14008;DHT22;61651;45.508;12.232;2022-07-29T06:56:42;28.20;99.90
14008;DHT22;61651;45.508;12.232;2022-07-29T06:59:44;28.40;99.90
14008;DHT22;61651;45.508;12.232;2022-07-29T07:02:46;28.40;99.90
14008;DHT22;61651;45.508;12.232;2022-07-29T07:05:50;28.50;99.90
14008;DHT22;61651;45.508;12.232;2022-07-29T07:08:53;28.60;99.90
14008;DHT22;61651;45.508;12.232;2022-07-29T07:11:55;28.60;99.90
14008;DHT22;61651;45.508;12.232;2022-07-29T07:14:57;28.80;99.90
14008;DHT22;61651;45.508;12.232;2022-07-29T07:17:59;28.90;99.90
14008;DHT22;61651;45.508;12.232;2022-07-29T07:21:02;29.10;99.90
14008;DHT22;61651;45.508;12.232;2022-07-29T07:24:06;29.20;99.90
14008;DHT22;61651;45.508;12.232;2022-07-29T07:27:08;29.30;99.90
14008;DHT22;61651;45.508;12.232;2022-07-29T07:30:10;29.20;99.90
14008;DHT22;61651;45.508;12.232;2022-07-29T07:33:13;29.40;99.90
14008;DHT22;61651;45.508;12.232;2022-07-29T07:36:16;29.50;99.90
14008;DHT22;61651;45.508;12.232;2022-07-29T07:39:18;29.60;99.90
14008;DHT22;61651;45.508;12.232;2022-07-29T07:42:20;29.60;99.90
14008;DHT22;61651;45.508;12.232;2022-07-29T07:45:22;29.70;99.90
14008;DHT22;61651;45.508;12.232;2022-07-29T07:48:24;29.80;99.90
14008;DHT22;61651;45.508;12.232;2022-07-29T07:51:27;29.80;99.90
14008;DHT22;61651;45.508;12.232;2022-07-29T07:54:29;29.90;99.90
14008;DHT22;61651;45.508;12.232;2022-07-29T07:57:31;30.00;99.90
14008;DHT22;61651;45.508;12.232;2022-07-29T08:00:33;29.80;99.90
14008;DHT22;61651;45.508;12.232;2022-07-29T08:03:36;29.70;99.90
14008;DHT22;61651;45.508;12.232;2022-07-29T08:06:39;29.70;99.90
14008;DHT22;61651;45.508;12.232;2022-07-29T08:09:41;29.80;99.90
14008;DHT22;61651;45.508;12.232;2022-07-29T08:12:43;29.90;99.90
14008;DHT22;61651;45.508;12.232;2022-07-29T08:15:45;30.10;99.90
14008;DHT22;61651;45.508;12.232;2022-07-29T08:18:47;30.30;99.90
14008;DHT22;61651;45.508;12.232;2022-07-29T08:21:51;30.40;99.90
14008;DHT22;61651;45.508;12.232;2022-07-29T08:24:53;30.60;99.90
14008;DHT22;61651;45.508;12.232;2022-07-29T08:27:56;30.70;99.90
14008;DHT22;61651;45.508;12.232;2022-07-29T08:30:58;30.80;99.90
14008;DHT22;61651;45.508;12.232;2022-07-29T08:34:00;31.00;99.90
14008;DHT22;61651;45.508;12.232;2022-07-29T08:37:04;31.00;99.90
14008;DHT22;61651;45.508;12.232;2022-07-29T08:40:07;30.90;99.90
14008;DHT22;61651;45.508;12.232;2022-07-29T08:43:09;30.80;99.90
14008;DHT22;61651;45.508;12.232;2022-07-29T08:46:11;30.80;99.90
14008;DHT22;61651;45.508;12.232;2022-07-29T08:49:13;30.90;99.90
14008;DHT22;61651;45.508;12.232;2022-07-29T08:52:17;30.80;99.90
14008;DHT22;61651;45.508;12.232;2022-07-29T08:55:20;31.00;99.90
14008;DHT22;61651;45.508;12.232;2022-07-29T08:58:22;31.00;99.90
14008;DHT22;61651;45.508;12.232;2022-07-29T09:01:27;31.10;99.90
14008;DHT22;61651;45.508;12.232;2022-07-29T09:04:32;31.30;99.90
14008;DHT22;61651;45.508;12.232;2022-07-29T09:07:39;31.50;99.90
14008;DHT22;61651;45.508;12.232;2022-07-29T09:10:43;31.50;99.90
14008;DHT22;61651;45.508;12.232;2022-07-29T09:13:45;31.60;99.90
14008;DHT22;61651;45.508;12.232;2022-07-29T09:16:52;31.80;99.90
14008;DHT22;61651;45.508;12.232;2022-07-29T09:20:08;32.00;99.90
14008;DHT22;61651;45.508;12.232;2022-07-29T09:23:12;32.00;99.90
14008;DHT22;61651;45.508;12.232;2022-07-29T09:26:15;31.90;99.90
14008;DHT22;61651;45.508;12.232;2022-07-29T09:29:18;31.60;99.90
14008;DHT22;61651;45.508;12.232;2022-07-29T09:32:20;31.80;99.90
14008;DHT22;61651;45.508;12.232;2022-07-29T09:35:24;31.70;98.80
14008;DHT22;61651;45.508;12.232;2022-07-29T09:38:28;31.70;99.20
14008;DHT22;61651;45.508;12.232;2022-07-29T09:41:47;31.60;99.30
14008;DHT22;61651;45.508;12.232;2022-07-29T09:44:50;31.60;99.20
14008;DHT22;61651;45.508;12.232;2022-07-29T09:47:52;31.70;98.00
14008;DHT22;61651;45.508;12.232;2022-07-29T09:50:54;31.90;98.60
14008;DHT22;61651;45.508;12.232;2022-07-29T09:53:59;31.90;96.90
14008;DHT22;61651;45.508;12.232;2022-07-29T09:57:05;32.10;96.70
14008;DHT22;61651;45.508;12.232;2022-07-29T10:00:09;32.20;96.70
14008;DHT22;61651;45.508;12.232;2022-07-29T10:03:12;32.20;97.50
14008;DHT22;61651;45.508;12.232;2022-07-29T10:06:14;32.50;97.80
14008;DHT22;61651;45.508;12.232;2022-07-29T10:09:17;32.90;98.00
14008;DHT22;61651;45.508;12.232;2022-07-29T10:12:19;33.20;98.40
14008;DHT22;61651;45.508;12.232;2022-07-29T10:15:22;33.50;97.30
14008;DHT22;61651;45.508;12.232;2022-07-29T10:18:25;33.70;97.80
14008;DHT22;61651;45.508;12.232;2022-07-29T10:21:27;33.90;97.30
14008;DHT22;61651;45.508;12.232;2022-07-29T10:24:32;33.90;95.30
14008;DHT22;61651;45.508;12.232;2022-07-29T10:27:35;33.80;96.10
14008;DHT22;61651;45.508;12.232;2022-07-29T10:30:38;33.20;95.00
14008;DHT22;61651;45.508;12.232;2022-07-29T10:33:51;33.20;96.20
14008;DHT22;61651;45.508;12.232;2022-07-29T10:36:59;33.30;95.70
14008;DHT22;61651;45.508;12.232;2022-07-29T10:40:10;33.70;95.80
14008;DHT22;61651;45.508;12.232;2022-07-29T10:43:37;33.90;96.10
14008;DHT22;61651;45.508;12.232;2022-07-29T10:46:42;34.20;97.70
14008;DHT22;61651;45.508;12.232;2022-07-29T10:49:55;34.40;97.90
14008;DHT22;61651;45.508;12.232;2022-07-29T10:52:58;34.40;98.80
14008;DHT22;61651;45.508;12.232;2022-07-29T10:56:02;34.50;99.00
14008;DHT22;61651;45.508;12.232;2022-07-29T10:59:22;34.70;98.90
14008;DHT22;61651;45.508;12.232;2022-07-29T11:02:45;34.70;98.50
14008;DHT22;61651;45.508;12.232;2022-07-29T11:05:53;34.80;98.90
14008;DHT22;61651;45.508;12.232;2022-07-29T11:09:25;35.00;98.40
14008;DHT22;61651;45.508;12.232;2022-07-29T11:12:47;35.10;98.70
14008;DHT22;61651;45.508;12.232;2022-07-29T11:15:52;35.10;98.20
14008;DHT22;61651;45.508;12.232;2022-07-29T11:19:20;35.10;98.70
14008;DHT22;61651;45.508;12.232;2022-07-29T11:22:32;35.20;97.50
14008;DHT22;61651;45.508;12.232;2022-07-29T11:25:34;35.00;97.90
14008;DHT22;61651;45.508;12.232;2022-07-29T11:28:50;35.00;98.00
14008;DHT22;61651;45.508;12.232;2022-07-29T11:31:52;35.10;98.70
14008;DHT22;61651;45.508;12.232;2022-07-29T11:35:13;35.10;97.80
14008;DHT22;61651;45.508;12.232;2022-07-29T11:38:25;35.20;97.80
14008;DHT22;61651;45.508;12.232;2022-07-29T11:41:28;35.40;97.30
14008;DHT22;61651;45.508;12.232;2022-07-29T11:44:55;35.40;98.20
14008;DHT22;61651;45.508;12.232;2022-07-29T11:47:59;35.60;96.80
14008;DHT22;61651;45.508;12.232;2022-07-29T11:51:09;35.80;97.10
14008;DHT22;61651;45.508;12.232;2022-07-29T11:54:13;35.80;96.80
14008;DHT22;61651;45.508;12.232;2022-07-29T11:57:16;35.80;96.90
14008;DHT22;61651;45.508;12.232;2022-07-29T12:00:29;35.90;96.90
14008;DHT22;61651;45.508;12.232;2022-07-29T12:03:31;35.80;95.90
14008;DHT22;61651;45.508;12.232;2022-07-29T12:06:35;35.70;95.60
14008;DHT22;61651;45.508;12.232;2022-07-29T12:09:37;35.80;95.80
14008;DHT22;61651;45.508;12.232;2022-07-29T12:12:39;35.80;95.30
14008;DHT22;61651;45.508;12.232;2022-07-29T12:15:42;35.70;95.00
14008;DHT22;61651;45.508;12.232;2022-07-29T12:18:55;35.80;94.60
14008;DHT22;61651;45.508;12.232;2022-07-29T12:21:57;35.90;95.00
14008;DHT22;61651;45.508;12.232;2022-07-29T12:25:01;36.20;94.60
14008;DHT22;61651;45.508;12.232;2022-07-29T12:28:05;36.50;93.90
14008;DHT22;61651;45.508;12.232;2022-07-29T12:31:14;36.60;93.90
14008;DHT22;61651;45.508;12.232;2022-07-29T12:34:16;36.50;93.10
14008;DHT22;61651;45.508;12.232;2022-07-29T12:37:19;36.40;93.10
14008;DHT22;61651;45.508;12.232;2022-07-29T12:40:21;36.40;92.90
14008;DHT22;61651;45.508;12.232;2022-07-29T12:43:24;36.60;93.20
14008;DHT22;61651;45.508;12.232;2022-07-29T12:46:28;36.50;92.00
14008;DHT22;61651;45.508;12.232;2022-07-29T12:49:30;36.20;92.40
14008;DHT22;61651;45.508;12.232;2022-07-29T12:52:33;36.20;92.50
14008;DHT22;61651;45.508;12.232;2022-07-29T12:55:42;36.30;92.30
14008;DHT22;61651;45.508;12.232;2022-07-29T12:58:45;36.30;92.70
14008;DHT22;61651;45.508;12.232;2022-07-29T13:01:50;36.50;92.80
14008;DHT22;61651;45.508;12.232;2022-07-29T13:04:56;36.70;92.20
14008;DHT22;61651;45.508;12.232;2022-07-29T13:08:10;36.90;91.90
14008;DHT22;61651;45.508;12.232;2022-07-29T13:11:28;37.10;91.90
14008;DHT22;61651;45.508;12.232;2022-07-29T13:14:31;37.00;91.30
14008;DHT22;61651;45.508;12.232;2022-07-29T13:17:40;37.20;91.80
14008;DHT22;61651;45.508;12.232;2022-07-29T13:20:43;37.00;91.80
14008;DHT22;61651;45.508;12.232;2022-07-29T13:23:45;37.00;91.50
14008;DHT22;61651;45.508;12.232;2022-07-29T13:26:46;37.20;92.10
14008;DHT22;61651;45.508;12.232;2022-07-29T13:29:50;37.30;91.50
14008;DHT22;61651;45.508;12.232;2022-07-29T13:32:54;37.40;91.30
14008;DHT22;61651;45.508;12.232;2022-07-29T13:35:56;37.60;90.80
14008;DHT22;61651;45.508;12.232;2022-07-29T13:38:58;37.60;90.00
14008;DHT22;61651;45.508;12.232;2022-07-29T13:42:01;37.70;89.70
14008;DHT22;61651;45.508;12.232;2022-07-29T13:45:04;37.80;89.70
14008;DHT22;61651;45.508;12.232;2022-07-29T13:48:08;37.80;90.40
14008;DHT22;61651;45.508;12.232;2022-07-29T13:51:11;38.00;90.30
14008;DHT22;61651;45.508;12.232;2022-07-29T13:54:13;38.40;89.00
14008;DHT22;61651;45.508;12.232;2022-07-29T13:57:15;38.90;86.70
14008;DHT22;61651;45.508;12.232;2022-07-29T14:00:17;39.20;85.30
14008;DHT22;61651;45.508;12.232;2022-07-29T14:03:21;39.30;84.50
14008;DHT22;61651;45.508;12.232;2022-07-29T14:06:24;39.20;84.40
14008;DHT22;61651;45.508;12.232;2022-07-29T14:09:26;39.10;84.00
14008;DHT22;61651;45.508;12.232;2022-07-29T14:12:28;38.90;82.10
14008;DHT22;61651;45.508;12.232;2022-07-29T14:15:30;38.60;83.60
14008;DHT22;61651;45.508;12.232;2022-07-29T14:18:33;38.40;83.90
14008;DHT22;61651;45.508;12.232;2022-07-29T14:21:36;38.10;83.70
14008;DHT22;61651;45.508;12.232;2022-07-29T14:24:38;37.70;84.50
14008;DHT22;61651;45.508;12.232;2022-07-29T14:27:40;37.30;84.10
14008;DHT22;61651;45.508;12.232;2022-07-29T14:30:43;36.90;84.30
14008;DHT22;61651;45.508;12.232;2022-07-29T14:33:46;36.60;85.50
14008;DHT22;61651;45.508;12.232;2022-07-29T14:36:48;36.40;85.30
14008;DHT22;61651;45.508;12.232;2022-07-29T14:39:50;36.10;86.70
14008;DHT22;61651;45.508;12.232;2022-07-29T14:42:52;36.00;87.20
14008;DHT22;61651;45.508;12.232;2022-07-29T14:45:54;35.90;87.40
14008;DHT22;61651;45.508;12.232;2022-07-29T14:48:58;35.70;88.40
14008;DHT22;61651;45.508;12.232;2022-07-29T14:51:59;35.50;87.10
14008;DHT22;61651;45.508;12.232;2022-07-29T14:55:02;35.50;88.50
14008;DHT22;61651;45.508;12.232;2022-07-29T14:58:04;35.40;87.70
14008;DHT22;61651;45.508;12.232;2022-07-29T15:01:06;35.30;87.90
14008;DHT22;61651;45.508;12.232;2022-07-29T15:04:10;35.20;87.90
14008;DHT22;61651;45.508;12.232;2022-07-29T15:07:12;35.10;87.50
14008;DHT22;61651;45.508;12.232;2022-07-29T15:10:14;35.00;88.50
14008;DHT22;61651;45.508;12.232;2022-07-29T15:13:16;34.90;86.80
14008;DHT22;61651;45.508;12.232;2022-07-29T15:16:18;34.80;87.90
14008;DHT22;61651;45.508;12.232;2022-07-29T15:19:21;34.80;88.50
14008;DHT22;61651;45.508;12.232;2022-07-29T15:22:23;34.80;88.50
14008;DHT22;61651;45.508;12.232;2022-07-29T15:25:26;34.70;87.90
14008;DHT22;61651;45.508;12.232;2022-07-29T15:28:28;34.60;86.40
14008;DHT22;61651;45.508;12.232;2022-07-29T15:31:30;34.50;84.80
14008;DHT22;61651;45.508;12.232;2022-07-29T15:34:33;34.30;85.10
14008;DHT22;61651;45.508;12.232;2022-07-29T15:37:35;34.00;86.20
14008;DHT22;61651;45.508;12.232;2022-07-29T15:40:38;33.60;85.00
14008;DHT22;61651;45.508;12.232;2022-07-29T15:43:43;33.60;85.10
14008;DHT22;61651;45.508;12.232;2022-07-29T15:46:47;33.60;86.30
14008;DHT22;61651;45.508;12.232;2022-07-29T15:50:07;33.60;86.90
14008;DHT22;61651;45.508;12.232;2022-07-29T15:53:14;33.60;87.60
14008;DHT22;61651;45.508;12.232;2022-07-29T15:56:16;33.30;87.70
14008;DHT22;61651;45.508;12.232;2022-07-29T15:59:18;33.30;88.30
14008;DHT22;61651;45.508;12.232;2022-07-29T16:02:20;33.30;87.10
14008;DHT22;61651;45.508;12.232;2022-07-29T16:05:24;33.20;86.10
14008;DHT22;61651;45.508;12.232;2022-07-29T16:08:29;33.10;86.60
14008;DHT22;61651;45.508;12.232;2022-07-29T16:11:31;33.10;89.20
14008;DHT22;61651;45.508;12.232;2022-07-29T16:14:33;33.20;89.30
14008;DHT22;61651;45.508;12.232;2022-07-29T16:17:35;33.30;90.00
14008;DHT22;61651;45.508;12.232;2022-07-29T16:20:39;33.30;90.00
14008;DHT22;61651;45.508;12.232;2022-07-29T16:23:41;33.30;90.00
14008;DHT22;61651;45.508;12.232;2022-07-29T16:26:43;33.40;90.10
14008;DHT22;61651;45.508;12.232;2022-07-29T16:29:45;33.40;90.30
14008;DHT22;61651;45.508;12.232;2022-07-29T16:32:49;33.40;90.70
14008;DHT22;61651;45.508;12.232;2022-07-29T16:35:53;33.30;90.80
14008;DHT22;61651;45.508;12.232;2022-07-29T16:38:55;33.30;90.80
14008;DHT22;61651;45.508;12.232;2022-07-29T16:41:57;33.30;90.20
14008;DHT22;61651;45.508;12.232;2022-07-29T16:44:59;33.20;90.00
14008;DHT22;61651;45.508;12.232;2022-07-29T16:48:01;33.20;90.20
14008;DHT22;61651;45.508;12.232;2022-07-29T16:51:05;33.20;90.80
14008;DHT22;61651;45.508;12.232;2022-07-29T16:54:07;33.10;91.20
14008;DHT22;61651;45.508;12.232;2022-07-29T16:57:10;33.10;91.40
14008;DHT22;61651;45.508;12.232;2022-07-29T17:00:14;33.10;91.70
14008;DHT22;61651;45.508;12.232;2022-07-29T17:03:16;32.80;92.30
14008;DHT22;61651;45.508;12.232;2022-07-29T17:06:19;32.80;92.50
14008;DHT22;61651;45.508;12.232;2022-07-29T17:09:21;32.80;92.50
14008;DHT22;61651;45.508;12.232;2022-07-29T17:12:24;32.80;92.30
14008;DHT22;61651;45.508;12.232;2022-07-29T17:15:27;32.60;91.90
14008;DHT22;61651;45.508;12.232;2022-07-29T17:18:29;32.70;92.10
14008;DHT22;61651;45.508;12.232;2022-07-29T17:21:32;32.80;92.20
14008;DHT22;61651;45.508;12.232;2022-07-29T17:24:34;32.80;92.60
14008;DHT22;61651;45.508;12.232;2022-07-29T17:27:36;32.50;93.70
14008;DHT22;61651;45.508;12.232;2022-07-29T17:30:38;32.50;94.00
14008;DHT22;61651;45.508;12.232;2022-07-29T17:33:40;32.30;93.30
14008;DHT22;61651;45.508;12.232;2022-07-29T17:36:44;32.20;94.20
14008;DHT22;61651;45.508;12.232;2022-07-29T17:39:46;32.30;94.80
14008;DHT22;61651;45.508;12.232;2022-07-29T17:42:48;32.20;95.80
14008;DHT22;61651;45.508;12.232;2022-07-29T17:45:50;32.20;96.60
14008;DHT22;61651;45.508;12.232;2022-07-29T17:48:52;32.10;97.50
14008;DHT22;61651;45.508;12.232;2022-07-29T17:51:56;32.00;99.40
14008;DHT22;61651;45.508;12.232;2022-07-29T17:54:58;31.80;99.90
14008;DHT22;61651;45.508;12.232;2022-07-29T17:58:00;31.00;99.90
14008;DHT22;61651;45.508;12.232;2022-07-29T18:01:03;30.30;99.90
14008;DHT22;61651;45.508;12.232;2022-07-29T18:04:04;29.10;99.90
14008;DHT22;61651;45.508;12.232;2022-07-29T18:07:08;28.60;99.90
14008;DHT22;61651;45.508;12.232;2022-07-29T18:10:11;28.30;99.90
14008;DHT22;61651;45.508;12.232;2022-07-29T18:13:13;28.00;99.90
14008;DHT22;61651;45.508;12.232;2022-07-29T18:16:16;28.00;99.90
14008;DHT22;61651;45.508;12.232;2022-07-29T18:19:18;28.00;99.90
14008;DHT22;61651;45.508;12.232;2022-07-29T18:22:21;28.40;99.90
14008;DHT22;61651;45.508;12.232;2022-07-29T18:25:23;28.60;99.90
14008;DHT22;61651;45.508;12.232;2022-07-29T18:28:25;28.80;99.90
14008;DHT22;61651;45.508;12.232;2022-07-29T18:31:27;28.90;99.90
14008;DHT22;61651;45.508;12.232;2022-07-29T18:34:29;29.00;99.90
14008;DHT22;61651;45.508;12.232;2022-07-29T18:37:32;29.10;99.90
14008;DHT22;61651;45.508;12.232;2022-07-29T18:40:36;29.20;99.90
14008;DHT22;61651;45.508;12.232;2022-07-29T18:43:39;29.20;99.90
14008;DHT22;61651;45.508;12.232;2022-07-29T18:46:41;29.10;99.90
14008;DHT22;61651;45.508;12.232;2022-07-29T18:49:43;29.10;99.90
14008;DHT22;61651;45.508;12.232;2022-07-29T18:52:47;29.20;99.90
14008;DHT22;61651;45.508;12.232;2022-07-29T18:55:49;29.00;99.90
14008;DHT22;61651;45.508;12.232;2022-07-29T18:58:51;29.10;99.90
14008;DHT22;61651;45.508;12.232;2022-07-29T19:01:53;29.00;99.90
14008;DHT22;61651;45.508;12.232;2022-07-29T19:04:54;28.50;99.90
14008;DHT22;61651;45.508;12.232;2022-07-29T19:07:58;28.20;99.90